Tiempo atmosférico en la estación meteorológica de La Oliva, Las Palmas (217 m.)



Fecha
DESCASC
Temp. máxima en grados centígrados (hora)
DESCASC
Temp. mínima en grados centígrados (hora)
DESCASC
Temp. media en grados centígrados
DESCASC
Racha de viento máxima en m/sg (hora)
DESCASC
Velocidad máxima media en intervalos de 10 minutos(hora)
DESCASC
Precipitaciones diarias en mm
DESCASC
Precipitaciones de 00:00 a 06:00 en mm
DESCASC
Precipitaciones de 06:00 a 12:00 en mm
DESCASC
Precipitaciones de 12:00 a 18:00 en mm
DESCASC
Precipitaciones de 18:00 a 24:00 en mm
DESCASC
21-02-2019 21.7 (15:50) 11.9 (05:40) 16.8 10 (14:00) 6.67 (14:50) 0.2 0 0.2 0 0
20-02-2019 18.8 (13:00) 11 (00:20) 14.9 9.44 (14:30) 3.89 (12:30) 0 0 0 0 0
19-02-2019 17.4 (14:10) 11.2 (23:59) 14.3 9.72 (16:30) 5.56 (09:20) 0 0 0 0 0
18-02-2019 17.8 (13:00) 12.6 (07:00) 15.2 11.67 (16:20) 6.39 (12:50) 0.2 0 0.2 0 0
17-02-2019 20.3 (13:50) 11.3 (00:00) 15.8 10 (14:20) 6.11 (14:50) 0 0 0 0 0
16-02-2019 19.9 (16:40) 10.3 (00:00) 15.1 12.22 (12:00) 7.22 (12:00) 0 0 0 0 0
15-02-2019 21.5 (00:10) 11.2 (00:00) 16.3 20.56 (06:30) 12.5 (02:10) 2.2 0 0 2.2 0
14-02-2019 24.6 (16:00) 15.9 (00:00) 20.3 23.89 (10:50) 13.61 (10:40) 0 0 0 0 0
13-02-2019 25 (17:40) 13.7 (00:00) 19.3 11.11 (13:30) 7.5 (12:00) 0.2 0 0.2 0 0
12-02-2019 22 (12:40) 14.6 (00:00) 18.3 10.56 (12:40) 7.22 (12:50) 0 0 0 0 0
11-02-2019 23.3 (16:20) 14.4 (00:00) 18.8 10.56 (10:30) 7.5 (10:30) 0 0 0 0 0
10-02-2019 21.5 (16:10) 13.3 (00:00) 17.4 10 (11:10) 6.11 (11:50) 0 0 0 0 0
09-02-2019 19.1 (14:10) 12 (00:00) 15.6 10.28 (09:50) 6.94 (09:30) 0 0 0 0 0
08-02-2019 18.3 (14:20) 13.2 (00:00) 15.7 9.17 (12:00) 5.56 (02:00) 0 0 0 0 0
07-02-2019 18.4 (14:40) 13.6 (00:00) 16 10.56 (11:00) 6.39 (12:10) 0 0 0 0 0
06-02-2019 21.1 (14:20) 13.1 (00:00) 17.1 10 (12:50) 5.83 (13:00) 0 0 0 0 0
05-02-2019 21 (16:10) 11.4 (00:00) 16.2 11.67 (12:40) 8.33 (12:30) 0 0 0 0 0
04-02-2019 21.5 (16:10) 13.1 (00:00) 17.3 10.83 (04:00) 6.39 (02:10) 0 0 0 0 0
03-02-2019 17.3 (14:00) 13.3 (00:00) 15.3 13.89 (14:10) 8.33 (14:10) 0 0 0 0 0
02-02-2019 17.7 (13:30) 13.3 (00:00) 15.5 11.67 (16:00) 6.67 (15:00) 0 0 0 0 0
01-02-2019 20.3 (13:40) 14.7 (00:00) 17.5 10.56 (14:30) 6.94 (17:00) 2.1 0 0 0.5 1.6
31-01-2019 17.9 (14:10) 13 (00:00) 15.4 8.89 (14:00) 4.72 (15:50) 0 0 0 0 0
30-01-2019 17.5 (13:30) 13 (00:00) 15.3 10.83 (15:20) 5.83 (12:50) 0.4 0.2 0 0 0.2
29-01-2019 18.3 (13:10) 10.7 (00:00) 14.5 10 (13:50) 6.39 (17:20) 0 0 0 0 0
28-01-2019 18.2 (15:10) 12.1 (00:00) 15.2 11.67 (13:30) 6.67 (13:50) 0 0 0 0 0
27-01-2019 18.7 (15:50) 12.7 (00:00) 15.7 8.06 (17:50) 4.44 (16:30) 0 0 0 0 0
26-01-2019 19.4 (15:20) 13.7 (00:00) 16.5 7.22 (17:00) 4.44 (15:10) 0 0 0 0 0
25-01-2019 18.4 (16:20) 12.2 (00:00) 15.3 6.39 (15:50) 3.61 (14:40) 0 0 0 0 0
24-01-2019 17.6 (13:10) 12.8 (00:00) 15.2 9.44 (10:50) 5.56 (10:50) 1.6 0 0 0.6 1

Gráficas

Temp. máximas Temp. mínimas Temp. medias Precipitaciones Rachas de viento máximas Velocidades máximas media en intervalos de 10 minutos

Datos horarios

Fecha y hora oficial Temperatura (ºC) Velocidad del viento (km/h) Dirección del viento Racha (km/h) Dirección de racha Precipitación (mm) Presión (hPa) Tendencia (hPa) Humedad (%)
2019-02-22 23:00:00 17.6 8 Este 15 Este 0 -- -- 43
2019-02-22 22:00:00 17.7 8 Este 13 Este 0 -- -- 37
2019-02-22 21:00:00 18.1 3 Sudeste 6 Sur 0 -- -- 39
2019-02-22 20:00:00 20.1 3 Norte 9 Este 0 -- -- 37
2019-02-22 19:00:00 23 4 Sur 21 Sudeste 0 -- -- 22
2019-02-22 18:00:00 25.4 13 Sur 30 Sudeste 0 -- -- 18
2019-02-22 17:00:00 25.9 19 Sudeste 39 Sudeste 0 -- -- 18
2019-02-22 16:00:00 25.9 30 Sudeste 50 Sudeste 0 -- -- 18
2019-02-22 15:00:00 25.7 33 Sudeste 51 Sudeste 0 -- -- 18
2019-02-22 14:00:00 25.6 23 Sudeste 43 Sudeste 0 -- -- 19
2019-02-22 13:00:00 24.8 26 Sudeste 52 Sudeste 0 -- -- 21
2019-02-22 12:00:00 23.4 40 Sudeste 59 Sudeste 0 -- -- 24
2019-02-22 11:00:00 22.6 37 Sudeste 55 Sudeste 0 -- -- 27
2019-02-22 10:00:00 21.2 35 Sudeste 56 Sudeste 0 -- -- 28
2019-02-22 09:00:00 17.4 25 Sudeste 37 Sudeste 0 -- -- 56
2019-02-22 08:00:00 14.3 14 Sudeste 22 Sudeste 0 -- -- 87
2019-02-22 07:00:00 13.8 14 Este 18 Este 0 -- -- 91
2019-02-22 06:00:00 13.5 7 Este 14 Este 0 -- -- 93
2019-02-22 05:00:00 13.9 9 Sudeste 15 Este 0 -- -- 95
2019-02-22 04:00:00 14.5 9 Este 20 Este 0 -- -- 96
2019-02-22 03:00:00 14.9 12 Este 25 Este 0 -- -- 96
2019-02-22 02:00:00 14.7 8 Este 17 Este 0 -- -- 95
2019-02-22 01:00:00 14.5 4 Nordeste 18 Este 0 -- -- 92
2019-02-22 00:00:00 14.3 9 Este 15 Sudeste 0 -- -- 75
2019-02-21 23:00:00 14.1 3 Este 10 Este 0 -- -- 87
2019-02-21 22:00:00 14.9 6 Este 19 Este 0 -- -- 93
2019-02-21 21:00:00 15.5 14 Este 24 Este 0 -- -- 92
2019-02-21 20:00:00 16.2 9 Este 19 Sudeste 0 -- -- 84
2019-02-21 19:00:00 19.1 8 Este 13 Este 0 -- -- 58
2019-02-21 18:00:00 20.6 9 Este 22 Sudeste 0 -- -- 55
2019-02-21 17:00:00 21 17 Sudeste 30 Este 0 -- -- 53
2019-02-21 16:00:00 21.7 19 Sudeste 36 Sudeste 0 -- -- 49
2019-02-21 15:00:00 20.8 23 Sudeste 34 Este 0 -- -- 47
2019-02-21 14:00:00 20.8 20 Este 36 Este 0 -- -- 52
2019-02-21 13:00:00 20 23 Sudeste 35 Sudeste 0 -- -- 50
2019-02-21 12:00:00 19.2 18 Sudeste 32 Sudeste 0 -- -- 62
2019-02-21 11:00:00 17.8 18 Sudeste 28 Sudeste 0 -- -- 66
2019-02-21 10:00:00 16.4 17 Sudeste 32 Sudeste 0 -- -- 73
2019-02-21 09:00:00 14.8 17 Sudeste 28 Sudeste 0 -- -- 89
2019-02-21 08:00:00 13 11 Sudeste 21 Sudeste 0 -- -- 95
2019-02-21 07:00:00 12.7 10 Este 18 Sudeste 0.2 -- -- 94
2019-02-21 06:00:00 12.1 6 Este 15 Este 0 -- -- 95
2019-02-21 05:00:00 12.5 9 Este 14 Este 0 -- -- 94
2019-02-21 04:00:00 12.5 10 Este 14 Sudeste 0 -- -- 94
2019-02-21 03:00:00 12.6 7 Este 14 Este 0 -- -- 93
2019-02-21 02:00:00 13 8 Este 13 Este 0 -- -- 92
2019-02-21 01:00:00 13.2 6 Este 11 Este 0 -- -- 92
2019-02-21 00:00:00 13.2 6 Este 10 Este 0 -- -- 92
2019-02-20 23:00:00 13 3 Este 6 Este 0 -- -- 90
2019-02-20 22:00:00 13.6 5 Este 8 Este 0 -- -- 89
2019-02-20 21:00:00 14.4 4 Nordeste 8 Norte 0 -- -- 85
2019-02-20 20:00:00 15.2 4 Norte 15 Norte 0 -- -- 85
2019-02-20 19:00:00 15.8 9 Norte 19 Norte 0 -- -- 82
2019-02-20 18:00:00 16.2 6 Norte 14 Norte 0 -- -- 79
2019-02-20 17:00:00 16.4 8 Nordeste 13 Nordeste 0 -- -- 77
2019-02-20 16:00:00 16.9 9 Norte 21 Norte 0 -- -- 74
2019-02-20 15:00:00 17.1 13 Norte 34 Sudoeste 0 -- -- 72
2019-02-20 14:00:00 18.1 9 Nordeste 23 Nordeste 0 -- -- 60
2019-02-20 13:00:00 18.8 11 Nordeste 27 Este 0 -- -- 57
2019-02-20 12:00:00 17.7 8 Nordeste 19 Nordeste 0 -- -- 59
2019-02-20 11:00:00 17 5 Nordeste 19 Nordeste 0 -- -- 64
2019-02-20 10:00:00 16.5 7 Nordeste 13 Noroeste 0 -- -- 70
2019-02-20 09:00:00 15.1 5 Norte 10 Norte 0 -- -- 82
2019-02-20 08:00:00 13 0 Calma 8 Norte 0 -- -- 86
2019-02-20 07:00:00 13.5 6 Norte 18 Norte 0 -- -- 86
2019-02-20 06:00:00 13.7 6 Norte 16 Norte 0 -- -- 82
2019-02-20 05:00:00 13.5 8 Norte 15 Norte 0 -- -- 82
2019-02-20 04:00:00 13.4 0 Calma 14 Norte 0 -- -- 79
2019-02-20 03:00:00 12.4 4 Nordeste 8 Nordeste 0 -- -- 77
2019-02-20 02:00:00 12.1 3 Este 7 Nordeste 0 -- -- 78
2019-02-20 01:00:00 11.3 3 Nordeste 5 Este 0 -- -- 78
2019-02-20 00:00:00 11.2 0 Calma 7 Nordeste 0 -- -- 75
2019-02-19 23:00:00 13.2 5 Nordeste 15 Norte 0 -- -- 71
2019-02-19 22:00:00 14 12 Nordeste 18 Nordeste 0 -- -- 70
2019-02-19 21:00:00 14.1 10 Norte 23 Nordeste 0 -- -- 66
2019-02-19 20:00:00 14.2 12 Norte 26 Norte 0 -- -- 69
2019-02-19 19:00:00 14.6 13 Norte 31 Norte 0 -- -- 59
2019-02-19 18:00:00 15.5 16 Norte 30 Norte 0 -- -- 59
2019-02-19 17:00:00 16.3 17 Norte 35 Noroeste 0 -- -- 61
2019-02-19 16:00:00 17.2 15 Norte 31 Norte 0 -- -- 63
2019-02-19 15:00:00 16.9 16 Norte 33 Norte 0 -- -- 53
2019-02-19 14:00:00 17.3 17 Norte 33 Noroeste 0 -- -- 55
2019-02-19 13:00:00 16.1 15 Norte 30 Norte 0 -- -- 62
2019-02-19 12:00:00 16.3 17 Norte 33 Nordeste 0 -- -- 58
2019-02-19 11:00:00 16.2 20 Nordeste 32 Nordeste 0 -- -- 42
2019-02-19 10:00:00 15.3 20 Norte 33 Norte 0 -- -- 53
2019-02-19 09:00:00 13.7 19 Norte 34 Nordeste 0 -- -- 72
2019-02-19 08:00:00 12.3 9 Nordeste 18 Nordeste 0 -- -- 75
2019-02-19 07:00:00 13 10 Norte 22 Norte 0 -- -- 78
2019-02-19 06:00:00 12.9 9 Norte 28 Norte 0 -- -- 76
2019-02-19 05:00:00 12.7 13 Norte 23 Norte 0 -- -- 76
2019-02-19 04:00:00 12.6 14 Norte 24 Norte 0 -- -- 75
2019-02-19 03:00:00 12.9 12 Norte 24 Nordeste 0 -- -- 75
2019-02-19 02:00:00 12.8 12 Norte 22 Norte 0 -- -- 74
2019-02-19 01:00:00 12.7 11 Norte 20 Nordeste 0 -- -- 72
2019-02-19 00:00:00 12.9 12 Norte 25 Norte 0 -- -- 69
2019-02-18 23:00:00 13.5 13 Norte 28 Norte 0 -- -- 70
2019-02-18 22:00:00 13.7 15 Norte 29 Norte 0 -- -- 70
2019-02-18 21:00:00 14 14 Norte 33 Norte 0 -- -- 67
2019-02-18 20:00:00 13.8 17 Norte 32 Norte 0 -- -- 75
2019-02-18 19:00:00 14.5 18 Norte 39 Nordeste 0 -- -- 68
2019-02-18 18:00:00 15.5 18 Norte 39 Norte 0 -- -- 64
2019-02-18 17:00:00 16.8 22 Norte 42 Norte 0 -- -- 58
2019-02-18 16:00:00 17.3 22 Norte 42 Norte 0 -- -- 58
2019-02-18 15:00:00 17.2 17 Norte 37 Nordeste 0 -- -- 61
2019-02-18 14:00:00 17.5 21 Norte 38 Norte 0 -- -- 64
2019-02-18 13:00:00 17.8 17 Norte 38 Norte 0 -- -- 68
2019-02-18 12:00:00 17.5 18 Norte 33 Norte 0 -- -- 72
2019-02-18 11:00:00 15.9 15 Norte 28 Norte 0.2 -- -- 81
2019-02-18 10:00:00 16.2 16 Norte 30 Nordeste 0 -- -- 80
2019-02-18 09:00:00 15.4 8 Norte 22 Norte 0 -- -- 84
2019-02-18 08:00:00 14.4 13 Norte 22 Nordeste 0 -- -- 86
2019-02-18 07:00:00 12.6 4 Noroeste 13 Norte 0 -- -- 92
2019-02-18 06:00:00 13.4 3 Oeste 15 Norte 0 -- -- 91
2019-02-18 05:00:00 14.3 6 Norte 15 Norte 0 -- -- 91
2019-02-18 04:00:00 14.4 7 Norte 16 Norte 0 -- -- 90
2019-02-18 03:00:00 14.2 3 Norte 5 Nordeste 0 -- -- 89
2019-02-18 02:00:00 13.9 2 Sudeste 12 Norte 0 -- -- 87
2019-02-18 01:00:00 14.5 7 Norte 18 Norte 0 -- -- 86
2019-02-18 00:00:00 14.8 9 Norte 17 Norte 0 -- -- 86
2019-02-17 23:00:00 15 5 Norte 18 Norte 0 -- -- 83
2019-02-17 22:00:00 15.5 12 Norte 25 Nordeste 0 -- -- 82
2019-02-17 21:00:00 15.6 13 Norte 24 Norte 0 -- -- 81
2019-02-17 20:00:00 15.7 9 Norte 19 Norte 0 -- -- 83
2019-02-17 19:00:00 16.6 9 Noroeste 18 Noroeste 0 -- -- 75
2019-02-17 18:00:00 17.9 12 Nordeste 25 Nordeste 0 -- -- 64
2019-02-17 17:00:00 18.9 16 Nordeste 30 Nordeste 0 -- -- 51
2019-02-17 16:00:00 19.6 18 Nordeste 32 Nordeste 0 -- -- 44
2019-02-17 15:00:00 19.5 17 Este 36 Este 0 -- -- 53
2019-02-17 14:00:00 20.2 18 Este 33 Este 0 -- -- 47
2019-02-17 13:00:00 19.8 18 Este 33 Este 0 -- -- 48
2019-02-17 12:00:00 19.2 16 Este 31 Nordeste 0 -- -- 57
2019-02-17 11:00:00 18.4 18 Nordeste 27 Nordeste 0 -- -- 52
2019-02-17 10:00:00 16.7 9 Nordeste 16 Nordeste 0 -- -- 73
2019-02-17 09:00:00 14.8 11 Norte 20 Norte 0 -- -- 87
2019-02-17 08:00:00 13.8 12 Norte 26 Norte 0 -- -- 89
2019-02-17 07:00:00 12.7 13 Norte 21 Norte 0 -- -- 95
2019-02-17 06:00:00 11.8 3 Sudeste 7 Sudeste 0 -- -- 93
2019-02-17 05:00:00 11.4 3 Sur 6 Sudeste 0 -- -- 91
2019-02-17 04:00:00 12.4 4 Sudeste 7 Este 0 -- -- 89
2019-02-17 03:00:00 12.8 5 Nordeste 17 Nordeste 0 -- -- 86
2019-02-17 02:00:00 12.2 2 Este 11 Nordeste 0 -- -- 80
2019-02-17 01:00:00 13.1 8 Nordeste 14 Nordeste 0 -- -- 79
2019-02-17 00:00:00 13.7 7 Nordeste 20 Nordeste 0 -- -- 76
2019-02-16 23:00:00 14.3 10 Nordeste 17 Nordeste 0 -- -- 82
2019-02-16 22:00:00 14.6 8 Nordeste 17 Norte 0 -- -- 86
2019-02-16 21:00:00 15.5 11 Nordeste 23 Nordeste 0 -- -- 79
2019-02-16 20:00:00 16 12 Nordeste 21 Nordeste 0 -- -- 73
2019-02-16 19:00:00 17.3 10 Nordeste 18 Nordeste 0 -- -- 45
2019-02-16 18:00:00 18.6 14 Nordeste 22 Nordeste 0 -- -- 39
2019-02-16 17:00:00 19.6 16 Nordeste 24 Nordeste 0 -- -- 41
2019-02-16 16:00:00 19.6 15 Norte 33 Noroeste 0 -- -- 52
2019-02-16 15:00:00 19.4 15 Noroeste 39 Noroeste 0 -- -- 70
2019-02-16 14:00:00 18.5 16 Noroeste 44 Noroeste 0 -- -- 77
2019-02-16 13:00:00 17.7 22 Noroeste 37 Noroeste 0 -- -- 78
2019-02-16 12:00:00 17.8 26 Noroeste 44 Noroeste 0 -- -- 76
2019-02-16 11:00:00 17 22 Noroeste 37 Noroeste 0 -- -- 76
2019-02-16 10:00:00 15.6 16 Noroeste 29 Noroeste 0 -- -- 82
2019-02-16 09:00:00 12.9 6 Noroeste 12 Noroeste 0 -- -- 95
2019-02-16 08:00:00 11 7 Noroeste 12 Noroeste 0 -- -- 94
2019-02-16 07:00:00 10.3 5 Oeste 8 Noroeste 0 -- -- 92
2019-02-16 06:00:00 11 5 Noroeste 17 Noroeste 0 -- -- 92
2019-02-16 05:00:00 11.5 10 Noroeste 16 Noroeste 0 -- -- 93
2019-02-16 04:00:00 11.3 5 Noroeste 14 Noroeste 0 -- -- 93
2019-02-16 03:00:00 11.5 10 Noroeste 15 Oeste 0 -- -- 94
2019-02-16 02:00:00 11.2 6 Noroeste 11 Oeste 0 -- -- 94
2019-02-16 01:00:00 11.1 7 Noroeste 11 Oeste 0 -- -- 95
2019-02-16 00:00:00 11.5 6 Noroeste 12 Noroeste 0 -- -- 94
2019-02-15 23:00:00 12.2 8 Oeste 17 Sudoeste 0 -- -- 95
2019-02-15 22:00:00 12 12 Oeste 21 Oeste 0 -- -- 96
2019-02-15 21:00:00 11.3 14 Oeste 18 Oeste 0 -- -- 95
2019-02-15 20:00:00 11.3 8 Oeste 13 Oeste 0 -- -- 93
2019-02-15 19:00:00 12.3 8 Oeste 12 Oeste 0 -- -- 88
2019-02-15 18:00:00 13.7 5 Noroeste 17 Oeste 0 -- -- 85
2019-02-15 17:00:00 12.9 9 Noroeste 18 Oeste 1 -- -- 91
2019-02-15 16:00:00 12.5 8 Noroeste 32 Noroeste 0.8 -- -- 89
2019-02-15 15:00:00 14.7 23 Noroeste 37 Noroeste 0.4 -- -- 72
2019-02-15 14:00:00 15.6 23 Noroeste 42 Noroeste 0 -- -- 67
2019-02-15 13:00:00 19.4 29 Oeste 44 Oeste 0 -- -- 66
2019-02-15 12:00:00 20.7 13 Sur 33 Sur 0 -- -- 34
2019-02-15 11:00:00 19.4 23 Sur 36 Sur 0 -- -- 31
2019-02-15 10:00:00 17.9 22 Sur 54 Sudeste 0 -- -- 32
2019-02-15 09:00:00 17.2 34 Sur 67 Sudeste 0 -- -- 32
2019-02-15 08:00:00 16.8 39 Sur 66 Sur 0 -- -- 34
2019-02-15 07:00:00 16.7 34 Sudeste 74 Sudeste 0 -- -- 36
2019-02-15 06:00:00 17.2 41 Sudeste 67 Sudeste 0 -- -- 30
2019-02-15 05:00:00 17.9 34 Sudeste 71 Sudeste 0 -- -- 33
2019-02-15 04:00:00 18.3 39 Sudeste 60 Sudeste 0 -- -- 34
2019-02-15 03:00:00 18.1 40 Sudeste 64 Sudeste 0 -- -- 36
2019-02-15 02:00:00 19.3 44 Sudeste 66 Sudeste 0 -- -- 29
2019-02-15 01:00:00 20.4 37 Sudeste 57 Sudeste 0 -- -- 26
2019-02-15 00:00:00 21 31 Sudeste 46 Sudeste 0 -- -- 23
2019-02-14 23:00:00 22 33 Sudeste 53 Sudeste 0 -- -- 20
2019-02-14 22:00:00 22.4 36 Sudeste 55 Sudeste 0 -- -- 21
2019-02-14 21:00:00 22.8 35 Sudeste 54 Sudeste 0 -- -- 20
2019-02-14 20:00:00 22.9 36 Sudeste 56 Sudeste 0 -- -- 20
2019-02-14 19:00:00 22.8 31 Sudeste 58 Sudeste 0 -- -- 22
2019-02-14 18:00:00 23.5 39 Sudeste 58 Sudeste 0 -- -- 22
2019-02-14 17:00:00 24.3 41 Sudeste 68 Sudeste 0 -- -- 22
2019-02-14 16:00:00 24.6 45 Sudeste 73 Sudeste 0 -- -- 22
2019-02-14 15:00:00 23.9 45 Sudeste 69 Sudeste 0 -- -- 24
2019-02-14 14:00:00 23.2 47 Sudeste 70 Sudeste 0 -- -- 27
2019-02-14 13:00:00 22.9 41 Sudeste 67 Sudeste 0 -- -- 28
2019-02-14 12:00:00 22.6 45 Sur 76 Sudeste 0 -- -- 31
2019-02-14 11:00:00 21.3 48 Sudeste 86 Sudeste 0 -- -- 33
2019-02-14 10:00:00 20.8 41 Sudeste 79 Sur 0 -- -- 34
2019-02-14 09:00:00 20.4 47 Sudeste 77 Sudeste 0 -- -- 32
2019-02-14 08:00:00 20.1 42 Sudeste 70 Sudeste 0 -- -- 30
2019-02-14 07:00:00 21.5 39 Sudeste 70 Sudeste 0 -- -- 25
2019-02-14 06:00:00 21.2 35 Sur 61 Sur 0 -- -- 27
2019-02-14 05:00:00 18.4 19 Este 31 Sudeste 0 -- -- 34
2019-02-14 04:00:00 17.1 19 Este 24 Este 0 -- -- 37
2019-02-14 03:00:00 17.1 14 Este 29 Este 0 -- -- 46
2019-02-14 02:00:00 16.6 13 Este 32 Sudeste 0 -- -- 61
2019-02-14 01:00:00 18 17 Este 32 Este 0 -- -- 41
2019-02-14 00:00:00 17 6 Este 10 Nordeste 0 -- -- 26
2019-02-13 23:00:00 16.4 5 Este 11 Este 0 -- -- 31
2019-02-13 22:00:00 17.3 6 Este 13 Este 0 -- -- 31
2019-02-13 21:00:00 17.5 4 Este 9 Sur 0 -- -- 43
2019-02-13 20:00:00 19.3 6 Nordeste 7 Nordeste 0 -- -- 60
2019-02-13 19:00:00 22.4 3 Sudeste 9 Noroeste 0 -- -- 44
2019-02-13 18:00:00 24.8 7 Noroeste 14 Noroeste 0 -- -- 30
2019-02-13 17:00:00 23.4 7 Este 26 Este 0 -- -- 57
2019-02-13 16:00:00 22.5 16 Este 29 Este 0 -- -- 61
2019-02-13 15:00:00 24.2 18 Este 28 Este 0 -- -- 47
2019-02-13 14:00:00 24 17 Sudeste 40 Sudeste 0 -- -- 38
2019-02-13 13:00:00 23.2 24 Sudeste 38 Este 0 -- -- 37
2019-02-13 12:00:00 21.7 27 Sudeste 37 Sudeste 0 -- -- 37
2019-02-13 11:00:00 20.8 21 Sudeste 32 Este 0 -- -- 57
2019-02-13 10:00:00 18.3 17 Este 31 Este 0 -- -- 69
2019-02-13 09:00:00 15.2 17 Este 30 Sudeste 0.2 -- -- 93
2019-02-13 08:00:00 13.9 19 Sudeste 33 Este 0 -- -- 98
2019-02-13 07:00:00 13.8 20 Este 32 Este 0 -- -- 99
2019-02-13 06:00:00 13.9 15 Este 28 Este 0 -- -- 99
2019-02-13 05:00:00 14 10 Nordeste 20 Este 0 -- -- 99
2019-02-13 04:00:00 14.2 11 Este 29 Este 0 -- -- 99
2019-02-13 03:00:00 14.4 22 Este 30 Sudeste 0 -- -- 99
2019-02-13 02:00:00 14.4 17 Este 28 Este 0 -- -- 98
2019-02-13 01:00:00 14.5 21 Este 30 Este 0 -- -- 98
2019-02-13 00:00:00 14.6 14 Sudeste 25 Este 0 -- -- 97
2019-02-12 23:00:00 14.7 11 Sudeste 21 Sudeste 0 -- -- 96
2019-02-12 22:00:00 15 14 Este 22 Este 0 -- -- 93
2019-02-12 21:00:00 15.3 12 Este 18 Este 0 -- -- 90
2019-02-12 20:00:00 15.9 9 Este 21 Este 0 -- -- 89
2019-02-12 19:00:00 17.1 12 Este 23 Este 0 -- -- 80
2019-02-12 18:00:00 19.5 16 Este 27 Este 0 -- -- 69
2019-02-12 17:00:00 20.9 17 Este 26 Este 0 -- -- 60
2019-02-12 16:00:00 21.5 20 Este 32 Este 0 -- -- 53
2019-02-12 15:00:00 21.6 24 Este 32 Este 0 -- -- 49
2019-02-12 14:00:00 21.7 18 Este 37 Este 0 -- -- 51
2019-02-12 13:00:00 21.9 24 Este 38 Este 0 -- -- 49
2019-02-12 12:00:00 21.6 23 Este 38 Este 0 -- -- 52
2019-02-12 11:00:00 19.8 19 Este 37 Este 0 -- -- 65
2019-02-12 10:00:00 17.9 20 Este 34 Sudeste 0 -- -- 79
2019-02-12 09:00:00 16.3 20 Este 33 Este 0 -- -- 86
2019-02-12 08:00:00 15.1 19 Este 30 Este 0 -- -- 83
2019-02-12 07:00:00 15.2 20 Este 31 Este 0 -- -- 79
2019-02-12 06:00:00 15.1 19 Este 29 Este 0 -- -- 81
2019-02-12 05:00:00 15.3 18 Este 31 Este 0 -- -- 81
2019-02-12 04:00:00 15.2 18 Este 27 Este 0 -- -- 88
2019-02-12 03:00:00 15.3 12 Este 22 Este 0 -- -- 90
2019-02-12 02:00:00 16 11 Este 18 Este 0 -- -- 76
2019-02-12 01:00:00 16.4 7 Nordeste 13 Nordeste 0 -- -- 58
2019-02-12 00:00:00 17.1 4 Nordeste 14 Este 0 -- -- 48
2019-02-11 23:00:00 17.5 8 Este 13 Este 0 -- -- 39
2019-02-11 22:00:00 17.9 8 Este 14 Este 0 -- -- 39
2019-02-11 21:00:00 18.7 8 Este 22 Este 0 -- -- 33
2019-02-11 20:00:00 19.2 12 Este 21 Este 0 -- -- 31
2019-02-11 19:00:00 19.4 8 Este 18 Este 0 -- -- 33
2019-02-11 18:00:00 21.5 10 Este 23 Este 0 -- -- 45
2019-02-11 17:00:00 23.2 14 Este 24 Este 0 -- -- 41
2019-02-11 16:00:00 22.9 17 Este 25 Este 0 -- -- 35
2019-02-11 15:00:00 22.8 14 Este 28 Este 0 -- -- 43
2019-02-11 14:00:00 22.7 18 Este 31 Este 0 -- -- 40
2019-02-11 13:00:00 22.3 19 Este 34 Este 0 -- -- 38
2019-02-11 12:00:00 21.2 22 Este 37 Este 0 -- -- 52
2019-02-11 11:00:00 19.8 23 Este 38 Este 0 -- -- 62
2019-02-11 10:00:00 18.5 22 Este 34 Este 0 -- -- 72
2019-02-11 09:00:00 16.7 15 Este 24 Este 0 -- -- 79
2019-02-11 08:00:00 15.4 15 Este 25 Este 0 -- -- 76
2019-02-11 07:00:00 15.1 18 Este 27 Este 0 -- -- 80
2019-02-11 06:00:00 14.4 14 Sudeste 21 Este 0 -- -- 89
2019-02-11 05:00:00 14.5 11 Este 27 Este 0 -- -- 90
2019-02-11 04:00:00 14.7 17 Este 27 Sudeste 0 -- -- 89
2019-02-11 03:00:00 14.8 13 Este 35 Este 0 -- -- 84
2019-02-11 02:00:00 16.3 19 Este 31 Este 0 -- -- 69
2019-02-11 01:00:00 16 16 Este 26 Este 0 -- -- 70
2019-02-11 00:00:00 15.5 12 Este 25 Nordeste 0 -- -- 80
2019-02-10 23:00:00 16.3 13 Este 30 Este 0 -- -- 74
2019-02-10 22:00:00 16.9 9 Este 19 Este 0 -- -- 45
2019-02-10 21:00:00 16.3 7 Este 16 Este 0 -- -- 59
2019-02-10 20:00:00 16.7 10 Este 20 Nordeste 0 -- -- 63
2019-02-10 19:00:00 17.9 10 Este 18 Este 0 -- -- 43
2019-02-10 18:00:00 20.1 9 Este 19 Este 0 -- -- 35
2019-02-10 17:00:00 21.5 13 Este 21 Este 0 -- -- 42
2019-02-10 16:00:00 21.3 12 Este 24 Este 0 -- -- 45
2019-02-10 15:00:00 21 14 Este 32 Este 0 -- -- 50
2019-02-10 14:00:00 20.9 19 Este 35 Este 0 -- -- 53
2019-02-10 13:00:00 20.4 20 Este 35 Este 0 -- -- 57
2019-02-10 12:00:00 19.6 19 Este 36 Este 0 -- -- 61
2019-02-10 11:00:00 18.5 20 Este 32 Este 0 -- -- 70
2019-02-10 10:00:00 17 14 Este 24 Este 0 -- -- 84
2019-02-10 09:00:00 14.8 9 Este 15 Este 0 -- -- 96
2019-02-10 08:00:00 13.3 6 Este 13 Este 0 -- -- 96
2019-02-10 07:00:00 13.5 7 Este 15 Este 0 -- -- 94
2019-02-10 06:00:00 14.1 8 Este 21 Este 0 -- -- 93
2019-02-10 05:00:00 14.4 15 Este 26 Este 0 -- -- 93
2019-02-10 04:00:00 14.5 13 Este 26 Este 0 -- -- 94
2019-02-10 03:00:00 14.5 18 Este 28 Este 0 -- -- 94
2019-02-10 02:00:00 14.6 19 Este 33 Este 0 -- -- 96
2019-02-10 01:00:00 14.4 17 Este 32 Este 0 -- -- 97
2019-02-10 00:00:00 13.6 13 Sudeste 21 Sudeste 0 -- -- 95
2019-02-09 23:00:00 12.9 5 Nordeste 12 Este 0 -- -- 95
2019-02-09 22:00:00 13.9 7 Este 15 Sudeste 0 -- -- 94
2019-02-09 21:00:00 14 9 Este 15 Este 0 -- -- 92
2019-02-09 20:00:00 14.4 6 Este 21 Este 0 -- -- 90
2019-02-09 19:00:00 15.2 11 Este 23 Este 0 -- -- 87
2019-02-09 18:00:00 17.3 14 Este 25 Este 0 -- -- 76
2019-02-09 17:00:00 18.2 12 Este 26 Sudeste 0 -- -- 72
2019-02-09 16:00:00 18.3 18 Sudeste 29 Este 0 -- -- 69
2019-02-09 15:00:00 18.7 17 Este 30 Este 0 -- -- 67
2019-02-09 14:00:00 18.9 15 Este 28 Este 0 -- -- 66
2019-02-09 13:00:00 18.3 13 Este 26 Este 0 -- -- 68
2019-02-09 12:00:00 17.6 17 Este 29 Este 0 -- -- 73
2019-02-09 11:00:00 16.7 17 Este 32 Este 0 -- -- 77
2019-02-09 10:00:00 15.4 21 Este 37 Sudeste 0 -- -- 82
2019-02-09 09:00:00 14 18 Este 31 Este 0 -- -- 87
2019-02-09 08:00:00 12.9 15 Este 30 Este 0 -- -- 87
2019-02-09 07:00:00 13.2 17 Este 32 Este 0 -- -- 86
2019-02-09 06:00:00 13.3 17 Este 32 Este 0 -- -- 87
2019-02-09 05:00:00 12.9 19 Este 29 Este 0 -- -- 88
2019-02-09 04:00:00 12.6 11 Este 22 Este 0 -- -- 88
2019-02-09 03:00:00 12.6 10 Este 22 Este 0 -- -- 86
2019-02-09 02:00:00 12.8 12 Este 19 Este 0 -- -- 86
2019-02-09 01:00:00 13.2 13 Este 26 Este 0 -- -- 85
2019-02-09 00:00:00 13.2 12 Este 23 Este 0 -- -- 85
2019-02-08 23:00:00 13.5 14 Este 23 Este 0 -- -- 85
2019-02-08 22:00:00 13.5 13 Este 22 Este 0 -- -- 85
2019-02-08 21:00:00 13.8 10 Este 21 Este 0 -- -- 84
2019-02-08 20:00:00 14.2 11 Este 20 Este 0 -- -- 82
2019-02-08 19:00:00 14.9 10 Este 24 Este 0 -- -- 77
2019-02-08 18:00:00 16.5 11 Este 23 Este 0 -- -- 70
2019-02-08 17:00:00 17.2 13 Nordeste 30 Este 0 -- -- 67
2019-02-08 16:00:00 18 12 Este 26 Este 0 -- -- 66
2019-02-08 15:00:00 18.2 15 Este 28 Este 0 -- -- 63
2019-02-08 14:00:00 18.2 14 Este 33 Este 0 -- -- 62
2019-02-08 13:00:00 17.6 15 Este 31 Nordeste 0 -- -- 64
2019-02-08 12:00:00 16.5 19 Nordeste 33 Nordeste 0 -- -- 68
2019-02-08 11:00:00 15.8 18 Nordeste 31 Nordeste 0 -- -- 73
2019-02-08 10:00:00 15 17 Nordeste 28 Nordeste 0 -- -- 74
2019-02-08 09:00:00 14.2 15 Este 26 Este 0 -- -- 79
2019-02-08 08:00:00 13.7 13 Este 27 Este 0 -- -- 82
2019-02-08 07:00:00 13.5 13 Este 24 Este 0 -- -- 83
2019-02-08 06:00:00 13.5 15 Este 24 Este 0 -- -- 84
2019-02-08 05:00:00 13.5 14 Este 26 Este 0 -- -- 84
2019-02-08 04:00:00 13.4 16 Este 28 Nordeste 0 -- -- 84
2019-02-08 03:00:00 13.6 16 Este 29 Este 0 -- -- 83
2019-02-08 02:00:00 13.8 20 Este 29 Este 0 -- -- 82
2019-02-08 01:00:00 13.9 15 Este 29 Este 0 -- -- 85
2019-02-08 00:00:00 13.8 17 Nordeste 29 Nordeste 0 -- -- 84
2019-02-07 23:00:00 13.8 14 Nordeste 24 Este 0 -- -- 86
2019-02-07 22:00:00 13.8 13 Este 24 Este 0 -- -- 85
2019-02-07 21:00:00 13.8 16 Este 26 Nordeste 0 -- -- 86
2019-02-07 20:00:00 14.3 15 Este 27 Este 0 -- -- 85
2019-02-07 19:00:00 14.9 14 Este 24 Este 0 -- -- 81
2019-02-07 18:00:00 16.4 13 Este 26 Nordeste 0 -- -- 75
2019-02-07 17:00:00 17.4 15 Este 34 Este 0 -- -- 68
2019-02-07 16:00:00 17.9 19 Este 34 Este 0 -- -- 67
2019-02-07 15:00:00 18.2 20 Este 32 Este 0 -- -- 65
2019-02-07 14:00:00 17.9 21 Este 33 Nordeste 0 -- -- 68
2019-02-07 13:00:00 17.8 22 Nordeste 35 Nordeste 0 -- -- 69
2019-02-07 12:00:00 17.5 18 Este 34 Nordeste 0 -- -- 70
2019-02-07 11:00:00 16.5 21 Este 38 Nordeste 0 -- -- 76
2019-02-07 10:00:00 15.6 22 Este 34 Nordeste 0 -- -- 82
2019-02-07 09:00:00 14.5 17 Este 28 Este 0 -- -- 88
2019-02-07 08:00:00 13.7 12 Este 32 Nordeste 0 -- -- 91
2019-02-07 07:00:00 13.7 19 Este 30 Este 0 -- -- 91
2019-02-07 06:00:00 13.8 17 Este 31 Este 0 -- -- 91
2019-02-07 05:00:00 13.9 19 Este 33 Este 0 -- -- 92
2019-02-07 04:00:00 13.7 15 Este 29 Este 0 -- -- 93
2019-02-07 03:00:00 13.7 17 Este 26 Nordeste 0 -- -- 94
2019-02-07 02:00:00 13.9 12 Este 23 Este 0 -- -- 93
2019-02-07 01:00:00 14.1 11 Este 25 Este 0 -- -- 94
2019-02-07 00:00:00 14.4 13 Este 27 Este 0 -- -- 92
2019-02-06 23:00:00 14.7 13 Este 22 Este 0 -- -- 88
2019-02-06 22:00:00 14.6 9 Este 19 Este 0 -- -- 73
2019-02-06 21:00:00 15 9 Este 17 Este 0 -- -- 65
2019-02-06 20:00:00 15.3 9 Este 14 Este 0 -- -- 50
2019-02-06 19:00:00 16.3 11 Nordeste 17 Este 0 -- -- 70
2019-02-06 18:00:00 18.6 11 Este 22 Sudeste 0 -- -- 55
2019-02-06 17:00:00 20 14 Este 23 Este 0 -- -- 50
2019-02-06 16:00:00 20.4 15 Este 26 Este 0 -- -- 46
2019-02-06 15:00:00 20.7 18 Este 29 Sudeste 0 -- -- 41
2019-02-06 14:00:00 20.8 18 Este 31 Este 0 -- -- 39
2019-02-06 13:00:00 20.5 21 Este 36 Sudeste 0 -- -- 40
2019-02-06 12:00:00 19.4 20 Este 32 Este 0 -- -- 49
2019-02-06 11:00:00 18.2 18 Este 32 Este 0 -- -- 65
2019-02-06 10:00:00 16.6 17 Este 26 Este 0 -- -- 84
2019-02-06 09:00:00 14.6 9 Este 16 Este 0 -- -- 94
2019-02-06 08:00:00 13.1 8 Este 17 Este 0 -- -- 93
2019-02-06 07:00:00 13.3 12 Este 19 Este 0 -- -- 90
2019-02-06 06:00:00 14 10 Este 23 Este 0 -- -- 85
2019-02-06 05:00:00 13.6 10 Este 19 Sudeste 0 -- -- 83
2019-02-06 04:00:00 14.7 18 Este 29 Este 0 -- -- 73
2019-02-06 03:00:00 15.1 11 Este 29 Este 0 -- -- 58
2019-02-06 02:00:00 14.9 13 Este 22 Este 0 -- -- 56
2019-02-06 01:00:00 14.8 10 Este 19 Este 0 -- -- 58
2019-02-06 00:00:00 15 8 Este 19 Este 0 -- -- 56
2019-02-05 23:00:00 14.5 7 Este 14 Este 0 -- -- 49
2019-02-05 22:00:00 15.1 6 Este 13 Este 0 -- -- 44
2019-02-05 21:00:00 15.4 10 Este 15 Este 0 -- -- 36
2019-02-05 20:00:00 15.5 10 Este 22 Este 0 -- -- 39
2019-02-05 19:00:00 16.1 13 Este 26 Este 0 -- -- 48
2019-02-05 18:00:00 18.6 15 Este 26 Este 0 -- -- 34
2019-02-05 17:00:00 20.5 17 Este 31 Sudeste 0 -- -- 28
2019-02-05 16:00:00 20.8 19 Sudeste 33 Sudeste 0 -- -- 25
2019-02-05 15:00:00 20.5 20 Sudeste 33 Sudeste 0 -- -- 27
2019-02-05 14:00:00 20.4 25 Sudeste 39 Sudeste 0 -- -- 26
2019-02-05 13:00:00 20.4 28 Sudeste 42 Sudeste 0 -- -- 24
2019-02-05 12:00:00 19.7 25 Sudeste 39 Sudeste 0 -- -- 31
2019-02-05 11:00:00 18.8 24 Sudeste 35 Este 0 -- -- 42
2019-02-05 10:00:00 17.1 19 Este 26 Este 0 -- -- 71
2019-02-05 09:00:00 15 14 Este 22 Este 0 -- -- 63
2019-02-05 08:00:00 13.8 14 Este 23 Este 0 -- -- 66
2019-02-05 07:00:00 12.6 12 Este 15 Este 0 -- -- 94
2019-02-05 06:00:00 12.3 9 Este 12 Este 0 -- -- 96
2019-02-05 05:00:00 11.6 7 Este 9 Este 0 -- -- 96
2019-02-05 04:00:00 11.9 3 Este 9 Este 0 -- -- 93
2019-02-05 03:00:00 12.6 5 Este 8 Este 0 -- -- 92
2019-02-05 02:00:00 12.4 6 Este 8 Este 0 -- -- 88
2019-02-05 01:00:00 12.1 5 Este 8 Este 0 -- -- 87
2019-02-05 00:00:00 13.1 3 Este 13 Este 0 -- -- 87
2019-02-04 23:00:00 14.1 9 Este 15 Este 0 -- -- 91
2019-02-04 22:00:00 14.4 0 Calma 6 Sudeste 0 -- -- 93
2019-02-04 21:00:00 15 3 Nordeste 11 Sudeste 0 -- -- 89
2019-02-04 20:00:00 15.5 7 Sudeste 17 Este 0 -- -- 85
2019-02-04 19:00:00 16.7 14 Este 21 Este 0 -- -- 78
2019-02-04 18:00:00 18.7 9 Este 20 Este 0 -- -- 69
2019-02-04 17:00:00 21 14 Este 21 Este 0 -- -- 58
2019-02-04 16:00:00 21.1 14 Sudeste 24 Sudeste 0 -- -- 50
2019-02-04 15:00:00 20.2 14 Este 30 Este 0 -- -- 61
2019-02-04 14:00:00 19.6 20 Este 34 Este 0 -- -- 69
2019-02-04 13:00:00 18.7 22 Este 34 Sudeste 0 -- -- 74
2019-02-04 12:00:00 17.9 22 Este 35 Este 0 -- -- 80
2019-02-04 11:00:00 17 23 Este 37 Este 0 -- -- 83
2019-02-04 10:00:00 15.9 19 Este 33 Este 0 -- -- 88
2019-02-04 09:00:00 14.6 19 Este 31 Nordeste 0 -- -- 93
2019-02-04 08:00:00 13.9 20 Este 32 Este 0 -- -- 93
2019-02-04 07:00:00 13.9 17 Este 31 Este 0 -- -- 91
2019-02-04 06:00:00 14.1 19 Este 35 Este 0 -- -- 89
2019-02-04 05:00:00 14.2 21 Este 37 Nordeste 0 -- -- 88
2019-02-04 04:00:00 14.1 23 Este 39 Nordeste 0 -- -- 88
2019-02-04 03:00:00 14.1 22 Este 35 Este 0 -- -- 88
2019-02-04 02:00:00 13.9 22 Nordeste 37 Este 0 -- -- 88
2019-02-04 01:00:00 13.7 20 Nordeste 33 Nordeste 0 -- -- 87
2019-02-04 00:00:00 13.6 22 Nordeste 34 Nordeste 0 -- -- 85
2019-02-03 23:00:00 13.8 20 Nordeste 37 Nordeste 0 -- -- 83
2019-02-03 22:00:00 13.7 19 Este 30 Este 0 -- -- 83
2019-02-03 21:00:00 13.5 20 Nordeste 36 Nordeste 0 -- -- 82
2019-02-03 20:00:00 13.7 14 Nordeste 32 Nordeste 0 -- -- 82
2019-02-03 19:00:00 14.4 18 Nordeste 40 Nordeste 0 -- -- 78
2019-02-03 18:00:00 15.7 26 Nordeste 40 Nordeste 0 -- -- 74
2019-02-03 17:00:00 16.3 28 Nordeste 46 Nordeste 0 -- -- 70
2019-02-03 16:00:00 16.9 29 Nordeste 45 Este 0 -- -- 69
2019-02-03 15:00:00 17.3 28 Nordeste 50 Nordeste 0 -- -- 66
2019-02-03 14:00:00 17.3 28 Nordeste 45 Nordeste 0 -- -- 67
2019-02-03 13:00:00 17 28 Nordeste 43 Nordeste 0 -- -- 67
2019-02-03 12:00:00 16.9 25 Nordeste 36 Nordeste 0 -- -- 67
2019-02-03 11:00:00 16.2 18 Nordeste 35 Nordeste 0 -- -- 67
2019-02-03 10:00:00 15.3 19 Nordeste 31 Nordeste 0 -- -- 69
2019-02-03 09:00:00 13.8 22 Nordeste 40 Nordeste 0 -- -- 75
2019-02-03 08:00:00 13.5 13 Nordeste 40 Nordeste 0 -- -- 75
2019-02-03 07:00:00 13.6 21 Nordeste 42 Nordeste 0 -- -- 73
2019-02-03 06:00:00 13.9 15 Nordeste 38 Norte 0 -- -- 76
2019-02-03 05:00:00 13.5 21 Nordeste 42 Nordeste 0 -- -- 74
2019-02-03 04:00:00 13.3 18 Nordeste 37 Nordeste 0 -- -- 72
2019-02-03 03:00:00 13.5 18 Nordeste 32 Nordeste 0 -- -- 71
2019-02-03 02:00:00 14.2 14 Nordeste 36 Nordeste 0 -- -- 71
2019-02-03 01:00:00 14.4 20 Nordeste 37 Norte 0 -- -- 69
2019-02-03 00:00:00 14.3 13 Nordeste 34 Nordeste 0 -- -- 70
2019-02-02 23:00:00 14.2 15 Norte 28 Nordeste 0 -- -- 69
2019-02-02 22:00:00 14 12 Nordeste 26 Norte 0 -- -- 69
2019-02-02 21:00:00 14.2 19 Norte 35 Norte 0 -- -- 66
2019-02-02 20:00:00 14.9 23 Norte 38 Norte 0 -- -- 65
2019-02-02 19:00:00 15.3 16 Norte 35 Norte 0 -- -- 70
2019-02-02 18:00:00 15.9 21 Norte 36 Norte 0 -- -- 65
2019-02-02 17:00:00 16.2 21 Norte 38 Norte 0 -- -- 62
2019-02-02 16:00:00 16.8 22 Norte 42 Norte 0 -- -- 57
2019-02-02 15:00:00 17 24 Norte 39 Norte 0 -- -- 60
2019-02-02 14:00:00 17.1 17 Norte 37 Norte 0 -- -- 58
2019-02-02 13:00:00 17.4 19 Norte 35 Nordeste 0 -- -- 54
2019-02-02 12:00:00 15.7 21 Norte 29 Norte 0 -- -- 65
2019-02-02 11:00:00 15.4 14 Nordeste 35 Nordeste 0 -- -- 64
2019-02-02 10:00:00 14.9 17 Norte 26 Norte 0 -- -- 68
2019-02-02 09:00:00 13.9 10 Norte 23 Nordeste 0 -- -- 72
2019-02-02 08:00:00 13.5 10 Norte 19 Nordeste 0 -- -- 80
2019-02-02 07:00:00 13.4 7 Nordeste 23 Nordeste 0 -- -- 80
2019-02-02 06:00:00 13.5 9 Nordeste 26 Norte 0 -- -- 82
2019-02-02 05:00:00 13.8 14 Norte 30 Nordeste 0 -- -- 81
2019-02-02 04:00:00 14.1 15 Norte 26 Nordeste 0 -- -- 86
2019-02-02 03:00:00 13.9 8 Nordeste 27 Norte 0 -- -- 84
2019-02-02 02:00:00 14.5 14 Norte 31 Norte 0 -- -- 88
2019-02-02 01:00:00 14.9 14 Norte 28 Norte 0 -- -- 96
2019-02-02 00:00:00 15.2 18 Norte 30 Norte 0.6 -- -- 98
2019-02-01 23:00:00 15.7 13 Norte 27 Norte 1 -- -- 98
2019-02-01 22:00:00 15.8 8 Noroeste 20 Norte 0 -- -- 97
2019-02-01 21:00:00 15.7 10 Noroeste 21 Noroeste 0 -- -- 98
2019-02-01 20:00:00 15.7 11 Noroeste 29 Noroeste 0 -- -- 98
2019-02-01 19:00:00 15.7 15 Noroeste 33 Oeste 0 -- -- 97
2019-02-01 18:00:00 16.1 17 Noroeste 31 Oeste -- -- -- 95
2019-02-01 17:00:00 16.9 25 Noroeste 36 Oeste 0 -- -- 86
2019-02-01 16:00:00 18.6 24 Oeste 36 Oeste 0 -- -- 74
2019-02-01 15:00:00 19.4 23 Oeste 38 Noroeste 0 -- -- 68
2019-02-01 14:00:00 19.8 21 Noroeste 35 Oeste 0 -- -- 63
2019-02-01 13:00:00 19.6 19 Noroeste 31 Noroeste 0 -- -- 65
2019-02-01 12:00:00 18.7 17 Noroeste 30 Noroeste 0 -- -- 68
2019-02-01 11:00:00 17.5 17 Noroeste 27 Noroeste 0 -- -- 69
2019-02-01 10:00:00 17.1 13 Noroeste 24 Noroeste 0 -- -- 76
2019-02-01 09:00:00 15.5 7 Noroeste 14 Noroeste 0 -- -- 78
2019-02-01 08:00:00 15 9 Noroeste 15 Noroeste 0 -- -- 78
2019-02-01 07:00:00 14.7 7 Noroeste 15 Noroeste 0 -- -- 76
2019-02-01 06:00:00 14.8 12 Noroeste 21 Noroeste 0 -- -- 72
2019-02-01 05:00:00 14.9 10 Noroeste 25 Noroeste 0 -- -- 70
2019-02-01 04:00:00 15.1 12 Noroeste 21 Noroeste 0 -- -- 71
2019-02-01 03:00:00 15.2 11 Noroeste 19 Noroeste 0 -- -- 71
2019-02-01 02:00:00 15.2 7 Noroeste 22 Norte 0 -- -- 71
2019-02-01 01:00:00 15.1 10 Noroeste 19 Noroeste 0 -- -- 73
2019-02-01 00:00:00 15.2 6 Noroeste 17 Noroeste 0 -- -- 69
2019-01-31 23:00:00 15.1 9 Noroeste 14 Noroeste 0 -- -- 70
2019-01-31 22:00:00 15.3 9 Noroeste 19 Norte 0 -- -- 69
2019-01-31 21:00:00 15.5 8 Noroeste 19 Noroeste 0 -- -- 70
2019-01-31 20:00:00 15.5 9 Norte 21 Norte 0 -- -- 69
2019-01-31 19:00:00 15.8 9 Norte 23 Norte 0 -- -- 76
2019-01-31 18:00:00 16.2 9 Norte 26 Noroeste 0 -- -- 71
2019-01-31 17:00:00 16.7 13 Noroeste 30 Noroeste 0 -- -- 62
2019-01-31 16:00:00 16.7 14 Norte 31 Norte 0 -- -- 65
2019-01-31 15:00:00 17.2 14 Norte 32 Noroeste 0 -- -- 67
2019-01-31 14:00:00 17.8 17 Norte 32 Norte 0 -- -- 66
2019-01-31 13:00:00 16 15 Norte 30 Norte 0 -- -- 81
2019-01-31 12:00:00 15.6 12 Norte 25 Noroeste 0 -- -- 87
2019-01-31 11:00:00 15.6 9 Norte 24 Noroeste 0 -- -- 82
2019-01-31 10:00:00 14.9 10 Noroeste 20 Norte 0 -- -- 85
2019-01-31 09:00:00 14.7 9 Norte 18 Norte 0 -- -- 75
2019-01-31 08:00:00 14.1 7 Norte 19 Norte 0 -- -- 77
2019-01-31 07:00:00 14.1 10 Norte 19 Norte 0 -- -- 74
2019-01-31 06:00:00 13.9 7 Norte 21 Norte 0 -- -- 76
2019-01-31 05:00:00 13.8 8 Norte 19 Norte 0 -- -- 77
2019-01-31 04:00:00 13.7 9 Norte 19 Norte 0 -- -- 76
2019-01-31 03:00:00 13.6 11 Norte 26 Norte 0 -- -- 77
2019-01-31 02:00:00 13.6 8 Norte 24 Norte 0 -- -- 80
2019-01-31 01:00:00 13.5 11 Norte 23 Nordeste 0 -- -- 82
2019-01-31 00:00:00 13.2 10 Norte 30 Norte 0 -- -- 88
2019-01-30 23:00:00 13.2 14 Norte 27 Norte 0 -- -- 90
2019-01-30 22:00:00 13.4 11 Norte 29 Nordeste 0.2 -- -- 93
2019-01-30 21:00:00 14.3 10 Norte 27 Norte 0 -- -- 87
2019-01-30 20:00:00 14.5 9 Norte 23 Norte 0 -- -- 83
2019-01-30 19:00:00 14.5 13 Norte 31 Norte 0 -- -- 80
2019-01-30 18:00:00 15.5 16 Norte 33 Noroeste 0 -- -- 72
2019-01-30 17:00:00 16.6 14 Norte 37 Norte 0 -- -- 65
2019-01-30 16:00:00 17.1 17 Norte 39 Norte 0 -- -- 70
2019-01-30 15:00:00 17.4 15 Norte 33 Norte 0 -- -- 64
2019-01-30 14:00:00 17.3 19 Norte 34 Norte 0 -- -- 68
2019-01-30 13:00:00 17 18 Norte 32 Norte 0 -- -- 69
2019-01-30 12:00:00 16.8 13 Norte 31 Norte 0 -- -- 72
2019-01-30 11:00:00 16 17 Norte 31 Norte 0 -- -- 77
2019-01-30 10:00:00 15.4 13 Norte 25 Norte 0 -- -- 80
2019-01-30 09:00:00 14.6 11 Norte 35 Norte 0 -- -- 85
2019-01-30 08:00:00 14 13 Norte 21 Norte 0 -- -- 85
2019-01-30 07:00:00 13.9 8 Nordeste 29 Nordeste 0 -- -- 88
2019-01-30 06:00:00 14.2 17 Norte 30 Nordeste 0 -- -- 84
2019-01-30 05:00:00 14 10 Nordeste 18 Norte 0 -- -- 86
2019-01-30 04:00:00 14.1 8 Nordeste 20 Norte 0 -- -- 92
2019-01-30 03:00:00 13.9 6 Nordeste 21 Norte 0 -- -- 95
2019-01-30 02:00:00 13.6 10 Norte 30 Norte 0.2 -- -- 95
2019-01-30 01:00:00 13.8 16 Norte 27 Norte 0 -- -- 94
2019-01-30 00:00:00 14 5 Nordeste 13 Nordeste 0 -- -- 94
2019-01-29 23:00:00 14 7 Nordeste 24 Norte 0 -- -- 93
2019-01-29 22:00:00 14.6 13 Norte 22 Nordeste 0 -- -- 86
2019-01-29 21:00:00 14.8 12 Nordeste 24 Norte 0 -- -- 90
2019-01-29 20:00:00 15.4 13 Nordeste 26 Nordeste 0 -- -- 86
2019-01-29 19:00:00 15.7 14 Nordeste 31 Norte 0 -- -- 79
2019-01-29 18:00:00 16.2 14 Nordeste 36 Nordeste 0 -- -- 77
2019-01-29 17:00:00 16.7 18 Norte 32 Nordeste 0 -- -- 76
2019-01-29 16:00:00 17.2 16 Norte 32 Norte 0 -- -- 74
2019-01-29 15:00:00 17.5 17 Norte 33 Nordeste 0 -- -- 70
2019-01-29 14:00:00 17.4 18 Norte 36 Norte 0 -- -- 72
2019-01-29 13:00:00 18.2 17 Nordeste 31 Nordeste 0 -- -- 67
2019-01-29 12:00:00 17.8 19 Nordeste 35 Nordeste 0 -- -- 68
2019-01-29 11:00:00 16.4 17 Norte 31 Nordeste 0 -- -- 73
2019-01-29 10:00:00 15.6 15 Nordeste 23 Nordeste 0 -- -- 78
2019-01-29 09:00:00 14.3 11 Nordeste 20 Nordeste 0 -- -- 87
2019-01-29 08:00:00 12.9 6 Nordeste 14 Norte 0 -- -- 91
2019-01-29 07:00:00 12.8 8 Nordeste 20 Norte 0 -- -- 89
2019-01-29 06:00:00 13.4 13 Norte 22 Nordeste 0 -- -- 90
2019-01-29 05:00:00 12.8 5 Nordeste 19 Nordeste 0 -- -- 91
2019-01-29 04:00:00 13.3 14 Norte 32 Norte 0 -- -- 91
2019-01-29 03:00:00 10.7 3 Oeste 6 Noroeste 0 -- -- 93
2019-01-29 02:00:00 11.3 5 Sudeste 8 Sudeste 0 -- -- 92
2019-01-29 01:00:00 11.7 6 Sudeste 9 Sudeste 0 -- -- 90
2019-01-29 00:00:00 12.1 0 Calma 5 Nordeste 0 -- -- 87
2019-01-28 23:00:00 13 4 Sudeste 19 Nordeste 0 -- -- 84
2019-01-28 22:00:00 14 11 Nordeste 21 Nordeste 0 -- -- 81
2019-01-28 21:00:00 14.2 10 Nordeste 29 Nordeste 0 -- -- 79
2019-01-28 20:00:00 14.4 18 Nordeste 30 Nordeste 0 -- -- 77
2019-01-28 19:00:00 14.9 21 Nordeste 35 Nordeste 0 -- -- 74
2019-01-28 18:00:00 15.9 18 Nordeste 38 Nordeste 0 -- -- 70
2019-01-28 17:00:00 16.7 23 Nordeste 38 Norte 0 -- -- 66
2019-01-28 16:00:00 17.1 23 Norte 39 Norte 0 -- -- 70
2019-01-28 15:00:00 17.9 18 Nordeste 32 Nordeste 0 -- -- 63
2019-01-28 14:00:00 17.7 20 Nordeste 42 Norte 0 -- -- 64
2019-01-28 13:00:00 17.5 21 Nordeste 36 Nordeste 0 -- -- 67
2019-01-28 12:00:00 16.6 18 Norte 36 Norte 0 -- -- 68
2019-01-28 11:00:00 16.4 16 Norte 31 Norte 0 -- -- 70
2019-01-28 10:00:00 15.8 12 Norte 27 Norte 0 -- -- 72
2019-01-28 09:00:00 15.1 10 Norte 23 Norte 0 -- -- 76
2019-01-28 08:00:00 14.2 12 Norte 21 Norte 0 -- -- 77
2019-01-28 07:00:00 13.4 8 Nordeste 17 Norte 0 -- -- 83
2019-01-28 06:00:00 13.6 6 Nordeste 11 Nordeste 0 -- -- 88
2019-01-28 05:00:00 13.7 6 Nordeste 16 Nordeste 0 -- -- 87
2019-01-28 04:00:00 14 9 Nordeste 15 Nordeste 0 -- -- 87
2019-01-28 03:00:00 14 7 Nordeste 22 Nordeste 0 -- -- 85
2019-01-28 02:00:00 14.2 14 Norte 23 Norte 0 -- -- 85
2019-01-28 01:00:00 14.2 8 Nordeste 19 Nordeste 0 -- -- 86
2019-01-28 00:00:00 15.1 10 Norte 23 Norte 0 -- -- 87
2019-01-27 23:00:00 15.1 11 Norte 23 Norte 0 -- -- 87
2019-01-27 22:00:00 14.4 6 Nordeste 18 Nordeste 0 -- -- 86
2019-01-27 21:00:00 15.1 6 Nordeste 25 Norte 0 -- -- 85
2019-01-27 20:00:00 15.4 12 Norte 27 Nordeste 0 -- -- 84
2019-01-27 19:00:00 15.9 12 Norte 25 Norte 0 -- -- 82
2019-01-27 18:00:00 17.2 13 Norte 29 Noroeste 0 -- -- 73
2019-01-27 17:00:00 17.7 14 Norte 28 Norte 0 -- -- 71
2019-01-27 16:00:00 18.7 13 Norte 29 Norte 0 -- -- 67
2019-01-27 15:00:00 18.4 11 Norte 28 Noroeste 0 -- -- 69
2019-01-27 14:00:00 18.3 11 Norte 22 Norte 0 -- -- 69
2019-01-27 13:00:00 18.2 10 Norte 19 Norte 0 -- -- 69
2019-01-27 12:00:00 17.3 9 Norte 20 Norte 0 -- -- 71
2019-01-27 11:00:00 18.1 9 Nordeste 16 Nordeste 0 -- -- 71
2019-01-27 10:00:00 16.3 6 Norte 17 Norte 0 -- -- 84
2019-01-27 09:00:00 14.7 2 Sudeste 4 Sudeste 0 -- -- 92
2019-01-27 08:00:00 13.5 0 Calma 4 Sudeste 0 -- -- 91
2019-01-27 07:00:00 13.2 0 Calma 5 Nordeste 0 -- -- 89
2019-01-27 06:00:00 13.8 0 Calma 9 Norte 0 -- -- 88
2019-01-27 05:00:00 13.9 2 Nordeste 7 Nordeste 0 -- -- 89
2019-01-27 04:00:00 13.8 2 Oeste 6 Nordeste 0 -- -- 93
2019-01-27 03:00:00 13.9 4 Nordeste 8 Este 0 -- -- 93
2019-01-27 02:00:00 13.4 3 Nordeste 5 Este 0 -- -- 94
2019-01-27 01:00:00 13 4 Nordeste 6 Nordeste 0 -- -- 93
2019-01-27 00:00:00 14.1 4 Este 9 Sudeste 0 -- -- 91
2019-01-26 23:00:00 14.2 4 Este 8 Este 0 -- -- 89
2019-01-26 22:00:00 15 3 Nordeste 5 Sudoeste 0 -- -- 86
2019-01-26 21:00:00 15.3 4 Sur 10 Norte 0 -- -- 85
2019-01-26 20:00:00 16 7 Norte 18 Norte 0 -- -- 84
2019-01-26 19:00:00 16.4 9 Noroeste 24 Norte 0 -- -- 78
2019-01-26 18:00:00 17.5 8 Norte 25 Noroeste 0 -- -- 70
2019-01-26 17:00:00 19 12 Noroeste 26 Noroeste 0 -- -- 66
2019-01-26 16:00:00 19.1 15 Noroeste 24 Oeste 0 -- -- 67
2019-01-26 15:00:00 19.3 14 Noroeste 22 Noroeste 0 -- -- 69
2019-01-26 14:00:00 19.1 12 Noroeste 21 Oeste 0 -- -- 63
2019-01-26 13:00:00 19 8 Oeste 17 Noroeste 0 -- -- 60
2019-01-26 12:00:00 18.2 6 Oeste 13 Oeste 0 -- -- 65
2019-01-26 11:00:00 17.6 5 Oeste 13 Noroeste 0 -- -- 71
2019-01-26 10:00:00 17.2 8 Noroeste 17 Noroeste 0 -- -- 77
2019-01-26 09:00:00 15.3 3 Sudoeste 5 Sur 0 -- -- 82
2019-01-26 08:00:00 13.9 3 Este 5 Este 0 -- -- 85
2019-01-26 07:00:00 14.2 2 Sur 5 Sur 0 -- -- 87
2019-01-26 06:00:00 14.3 3 Sudeste 4 Sudeste 0 -- -- 87
2019-01-26 05:00:00 14.4 3 Sudeste 5 Noroeste 0 -- -- 88
2019-01-26 04:00:00 14.5 3 Noroeste 7 Norte 0 -- -- 89
2019-01-26 03:00:00 14.4 2 Norte 4 Noroeste 0 -- -- 92
2019-01-26 02:00:00 14.4 0 Calma 6 Sur 0 -- -- 93
2019-01-26 01:00:00 14.5 2 Este 4 Sudeste 0 -- -- 94
2019-01-26 00:00:00 14.3 2 Este 4 Sur 0 -- -- 93
2019-01-25 23:00:00 14.3 0 Calma 6 Nordeste 0 -- -- 91
2019-01-25 22:00:00 14.9 5 Norte 9 Nordeste 0 -- -- 92
2019-01-25 21:00:00 15.3 2 Noroeste 7 Noroeste 0 -- -- 90
2019-01-25 20:00:00 15.5 2 Noroeste 10 Noroeste 0 -- -- 89
2019-01-25 19:00:00 15.8 3 Noroeste 13 Noroeste 0 -- -- 88
2019-01-25 18:00:00 16.5 8 Norte 20 Noroeste 0 -- -- 83
2019-01-25 17:00:00 17.2 10 Norte 22 Noroeste 0 -- -- 76
2019-01-25 16:00:00 17.9 10 Noroeste 23 Norte 0 -- -- 77
2019-01-25 15:00:00 18.1 9 Noroeste 22 Noroeste 0 -- -- 73
2019-01-25 14:00:00 18 11 Noroeste 19 Norte 0 -- -- 76
2019-01-25 13:00:00 17.7 9 Norte 19 Noroeste 0 -- -- 77
2019-01-25 12:00:00 16.6 8 Noroeste 15 Noroeste 0 -- -- 84
2019-01-25 11:00:00 15.8 4 Norte 20 Norte 0 -- -- 91
2019-01-25 10:00:00 15.2 4 Norte 11 Norte 0 -- -- 97
2019-01-25 09:00:00 13.3 2 Sudoeste 6 Noroeste 0 -- -- 99
2019-01-25 08:00:00 12.3 0 Calma 6 Este 0 -- -- 98
2019-01-25 07:00:00 12.9 0 Calma 7 Noroeste 0 -- -- 98
2019-01-25 06:00:00 13.6 4 Noroeste 15 Norte 0 -- -- 98
2019-01-25 05:00:00 13.6 5 Norte 15 Norte 0 -- -- 98
2019-01-25 04:00:00 13.6 4 Norte 13 Norte 0 -- -- 99
2019-01-25 03:00:00 13.1 2 Este 13 Norte 0.2 -- -- 98
2019-01-25 02:00:00 13.8 5 Nordeste 12 Nordeste 0 -- -- 97
2019-01-25 01:00:00 13.5 3 Nordeste 7 Nordeste 0 -- -- 96
2019-01-25 00:00:00 14.1 7 Norte 20 Norte 0 -- -- 96
2019-01-24 23:00:00 14.4 12 Norte 21 Norte 0 -- -- 95
2019-01-24 22:00:00 14.3 11 Norte 23 Norte 0 -- -- 95
2019-01-24 21:00:00 14.5 13 Norte 25 Norte 0.2 -- -- 95
2019-01-24 20:00:00 14.6 10 Norte 25 Norte 0.2 -- -- 95
2019-01-24 19:00:00 14.7 9 Norte 21 Noroeste 0.6 -- -- 95
2019-01-24 18:00:00 14.9 8 Noroeste 32 Norte 0.6 -- -- 92
2019-01-24 17:00:00 16.2 14 Noroeste 31 Noroeste 0 -- -- 79
2019-01-24 16:00:00 17.1 16 Norte 32 Norte 0 -- -- 70
2019-01-24 15:00:00 17.5 15 Noroeste 32 Norte 0 -- -- 72
2019-01-24 14:00:00 17.2 15 Norte 33 Norte 0 -- -- 70
2019-01-24 13:00:00 17.4 15 Norte 33 Norte 0 -- -- 63
2019-01-24 12:00:00 16.6 17 Norte 34 Norte 0 -- -- 67
2019-01-24 11:00:00 16.3 16 Norte 34 Norte 0 -- -- 72
2019-01-24 10:00:00 14.6 13 Norte 32 Norte 0 -- -- 87
2019-01-24 09:00:00 13.5 16 Norte 30 Nordeste 0 -- -- 87
2019-01-24 08:00:00 12.9 10 Norte 21 Norte 0 -- -- 86
2019-01-24 07:00:00 12.8 4 Nordeste 23 Nordeste 0 -- -- 85
2019-01-24 06:00:00 13 10 Nordeste 26 Norte 0 -- -- 83
2019-01-24 05:00:00 13.9 15 Nordeste 27 Norte 0 -- -- 82
2019-01-24 04:00:00 14.2 12 Norte 25 Nordeste 0 -- -- 75
2019-01-24 03:00:00 14.1 6 Nordeste 14 Norte 0 -- -- 90
2019-01-24 02:00:00 13.9 10 Norte 23 Nordeste 0 -- -- 91
2019-01-24 01:00:00 14.3 10 Norte 23 Nordeste 0 -- -- 88
2019-01-24 00:00:00 14.6 11 Norte 22 Norte 0 -- -- 84